Date,TemperatureHighF,TemperatureAvgF,TemperatureLowF,DewpointHighF,DewpointAvgF,DewpointLowF,HumidityHigh,HumidityAvg,HumidityLow,PressureMaxIn,PressureMinIn,WindSpeedMaxMPH,WindSpeedAvgMPH,GustSpeedMaxMPH,PrecipitationSumIn
2013-8-1,75.7,66.3,0.0,67.3,61.7,29.8,91,85,70,30.26,30.17,8,3,8,0.17
2013-8-2,77.0,66.3,-13.8,64.0,58.6,-15.9,90,77,56,30.32,30.21,9,2,9,0.17
2013-8-3,77.7,66.4,59.5,66.7,60.1,29.4,89,81,59,30.30,30.23,7,1,7,0.17
2013-8-4,74.4,65.4,57.5,60.5,57.2,51.7,90,76,58,30.34,30.23,9,2,9,0.17
2013-8-5,76.8,63.7,51.6,62.0,55.7,48.2,89,77,56,30.37,30.26,8,2,8,0.17
2013-8-6,79.8,68.3,62.4,65.8,61.2,57.9,88,79,60,30.28,30.22,7,1,7,0.17
2013-8-7,77.3,70.0,64.7,69.7,65.4,61.1,90,85,77,30.32,30.27,7,2,7,0.20
2013-8-8,76.1,69.6,65.6,71.2,66.1,62.6,90,89,83,30.31,30.27,6,1,6,0.59
2013-8-9,80.7,72.7,67.8,71.8,67.5,29.6,90,84,70,30.32,30.25,10,2,10,0.17
2013-8-10,79.8,71.7,67.8,70.4,66.4,64.4,89,84,69,30.37,30.30,57,10,57,0.33
2013-8-11,74.8,71.6,68.1,70.3,67.6,38.6,89,87,84,30.39,30.32,57,39,57,0.24
2013-8-12,80.4,71.0,64.7,69.8,65.1,61.4,89,82,60,30.36,30.24,57,16,57,0.17
2013-8-13,76.4,68.0,62.2,68.3,63.1,58.4,89,85,70,30.24,30.11,57,20,57,0.29
2013-8-14,69.4,60.8,51.9,58.4,52.3,24.7,89,75,56,30.32,30.18,57,26,57,0.17
2013-8-15,71.4,63.6,0.0,99.9,53.9,49.0,100,69,57,30.41,30.33,57,24,0,0.00
2013-8-16,75.0,61.3,0.0,59.7,52.8,45.5,89,74,55,30.43,30.35,57,38,0,0.00
2013-8-17,73.7,61.1,51.9,60.8,55.2,27.7,89,81,64,30.47,30.41,57,32,0,0.00
2013-8-18,69.4,62.6,57.9,64.0,58.8,54.4,90,87,82,30.47,30.40,57,40,0,0.12
2013-8-19,75.7,66.7,61.8,68.1,62.0,58.5,90,85,74,30.43,30.34,57,38,0,0.04
2013-8-20,82.0,69.1,58.6,69.2,62.0,55.4,90,79,53,30.46,30.38,57,45,0,0.00
2013-8-21,79.3,69.3,63.1,69.9,64.2,59.8,89,84,71,30.48,30.38,57,40,0,0.51
2013-8-22,77.9,66.9,0.0,69.5,62.2,-18.0,90,84,73,30.42,30.30,57,20,0,0.00
2013-8-23,77.1,67.0,59.5,68.6,61.6,55.3,90,83,68,30.40,30.27,57,30,0,0.02
2013-8-24,78.4,63.7,53.2,62.0,55.9,49.7,90,77,53,30.56,30.40,57,46,0,0.00
2013-8-25,76.1,64.1,53.7,62.2,55.8,50.1,89,76,56,30.63,30.52,57,27,0,0.00
2013-8-26,78.4,64.5,52.3,64.4,56.9,48.9,89,77,57,30.56,30.37,57,34,0,0.00
2013-8-27,80.4,69.6,61.3,69.1,63.3,40.3,89,81,65,30.38,30.26,57,35,0,0.00
2013-8-28,80.4,71.5,67.8,72.4,66.7,63.6,90,85,69,30.30,30.15,57,19,0,0.78
2013-8-29,69.6,68.4,68.1,66.2,65.0,33.1,89,89,89,30.22,30.17,57,42,0,0.00
2013-8-31,70.0,65.3,64.2,65.5,61.7,60.9,100,90,89,30.22,30.15,28,3,0,27.88